Aviation Digital Data Service (ADDS)

Output produced by METARs form (2055 UTC 22 June 2018)
found at http://aviationweather.gov/adds/metars/
 
KARA 222053Z 24010KT 10SM FEW040 33/23 A2988 RMK AO2 SLP118 T03280228 56024 $